Flight Track Log - Related Links

Times and Time Zones

All times are in EDT time to prevent confusion due to time zone crossing. See the EJA831 flight status page for this flight to view local times or setup timezone preferences in your user account.

Time Position Orientation Groundspeed Altitude Reporting Facility
EDT Latitude Longitude Course Direction KTS MPH feet Rate Location/Type
Fri 11:37:15 AM 37.6636 -87.2106 226° Southwest 191 220 9,200  Level Indianapolis Center
Fri 11:38:17 AM 37.6161 -87.2614 220° Southwest 215 247 13,800 3,048 Climbing Indianapolis Center
Fri 11:39:19 AM 37.5614 -87.3239 222° Southwest 274 315 15,500 1,790 Climbing Indianapolis Center
Fri 11:40:21 AM 37.4964 -87.3944 221° Southwest 302 348 17,500 1,756 Climbing Indianapolis Center
Fri 11:41:00 AM 37.4333 -87.4988 218° Southwest  Level Estimated
Fri 11:41:22 AM 37.4267 -87.4644 219° Southwest 315 362 19,100  Level Indianapolis Center
Fri 11:42:24 AM 37.3467 -87.5472 219° Southwest 317 365 19,100 226 Level Indianapolis Center
Fri 11:43:35 AM 37.2664 -87.6281 219° Southwest 323 372 19,600 1,466 Climbing Memphis Center
Fri 11:44:35 AM 37.1972 -87.6983 219° Southwest 323 372 22,300 2,200 Climbing Memphis Center
Fri 11:45:35 AM 37.1297 -87.7656 218° Southwest 323 372 24,000 850 Climbing Memphis Center
Fri 11:46:35 AM 37.0686 -87.8272 219° Southwest 323 372 24,000  Level Memphis Center
Fri 11:47:35 AM 36.9950 -87.8972 217° Southwest 323 372 24,000  Level Memphis Center
Fri 11:48:35 AM 36.9297 -87.9667 220° Southwest 323 372 24,000  Level Memphis Center
Fri 11:49:35 AM 36.8581 -88.0361 218° Southwest 323 372 24,000  Level Memphis Center
Fri 11:50:35 AM 36.7883 -88.1056 219° Southwest 323 372 24,000  Level Memphis Center
Fri 11:51:35 AM 36.7208 -88.1747 219° Southwest 323 372 24,000  Level Memphis Center
Fri 11:52:35 AM 36.6492 -88.2414 217° Southwest 323 372 24,000  Level Memphis Center
Fri 11:53:35 AM 36.5878 -88.3050 220° Southwest 311 358 24,000  Level Memphis Center
Fri 11:54:35 AM 36.5200 -88.3714 218° Southwest 311 358 24,000  Level Memphis Center
Fri 11:55:35 AM 36.4542 -88.4347 218° Southwest 311 358 24,000  Level Memphis Center
Fri 11:56:35 AM 36.3886 -88.4983 218° Southwest 311 358 24,000  Level Memphis Center
Fri 11:57:35 AM 36.3228 -88.5642 219° Southwest 311 358 24,000  Level Memphis Center
Fri 11:58:35 AM 36.2569 -88.6300 219° Southwest 311 358 24,000  Level Memphis Center
Fri 11:59:35 AM 36.1850 -88.7008 218° Southwest 311 358 24,000  Level Memphis Center
Fri 12:00:35 PM 36.1192 -88.7639 218° Southwest 311 358 24,000  Level Memphis Center
Fri 12:01:35 PM 36.0469 -88.8294 216° Southwest 316 364 24,000  Level Memphis Center
Fri 12:02:35 PM 35.9769 -88.9000 219° Southwest 322 371 24,000  Level Memphis Center
Fri 12:03:35 PM 35.9069 -88.9681 218° Southwest 322 371 24,000 -50 Level Memphis Center
Fri 12:04:35 PM 35.8367 -89.0358 218° Southwest 322 371 23,900 -850 Descending Memphis Center
Fri 12:05:35 PM 35.7686 -89.1033 219° Southwest 322 371 22,300 -1,650 Descending Memphis Center
Fri 12:06:35 PM 35.6961 -89.1683 216° Southwest 322 371 20,600 -1,600 Descending Memphis Center
Fri 12:07:35 PM 35.6342 -89.2331 220° Southwest 307 353 19,100 -1,950 Descending Memphis Center
Fri 12:08:35 PM 35.5661 -89.3003 219° Southwest 307 353 16,700 -2,700 Descending Memphis Center
Fri 12:09:35 PM 35.4997 -89.3700 221° Southwest 313 360 13,700 -3,050 Descending Memphis Center
Fri 12:10:35 PM 35.4419 -89.4422 226° Southwest 313 360 10,600 -2,700 Descending Memphis Center
Fri 12:11:35 PM 35.3672 -89.4861 206° Southwest 305 351 8,300 -2,250 Descending Memphis Center
Fri 12:12:35 PM 35.3008 -89.5278 207° Southwest 277 319 6,100 -1,900 Descending Memphis Center
Fri 12:13:35 PM 35.2406 -89.5792 215° Southwest 277 319 4,500 -1,200 Descending Memphis Center
Fri 12:14:35 PM 35.1803 -89.6281 214° Southwest 272 313 3,700 -750 Descending Memphis Center
Fri 12:15:35 PM 35.1222 -89.6767 214° Southwest 259 298 3,000 -350 Descending Memphis Center
Fri 12:16:35 PM 35.0747 -89.7356 225° Southwest 253 291 3,000 -50 Level Memphis Center
Fri 12:17:35 PM 35.0561 -89.8014 251° West 237 273 2,900 -550 Descending Memphis Center
Fri 12:18:35 PM 35.0583 -89.8572 273° West 184 212 1,900 -850 Descending Memphis Center
Fri 12:19:35 PM 35.0586 -89.9006 270° West 165 190 1,200 -700 Descending Memphis Center
Fri 12:20:35 PM 35.0589 -89.9436 270° West 143 165 500 -700 Descending Memphis Center
Fri 12:22:00 PM 35.0424 -89.9767 342° North  Level Estimated
Fri 12:29:00 PM 35.0424 -89.9767 345° North  Level Estimated

Login

Don't have an account? Register now (free) for customized features, flight alerts, and more!